Time;durP1;ratioP1;P1;durP2;ratioP2;P2;SDS_P1;SDS_P2;PMS_P1;PMS_P2;Temp;Humidity;BMP_temperature;BMP_pressure;BME280_temperature;BME280_humidity;BME280_pressure;Samples;Min_cycle;Max_cycle;Signal;HPM_P1;HPM_P2
2022/10/14 00:01:11;;;;;;;;;;;;;;;11.51;100.00;98439.32;1675446;82;24646;-86
2022/10/14 00:03:39;;;;;;;;;;;;;;;11.50;100.00;98438.95;1650545;84;20325;-89
2022/10/14 00:06:06;;;;;;;;;;;;;;;11.49;100.00;98440.73;1694831;82;21197;-88
2022/10/14 00:08:32;;;;;;;;;;;;;;;11.48;100.00;98436.91;1696791;82;25450;-86
2022/10/14 00:11:00;;;;;;;;;;;;;;;11.47;100.00;98437.84;1689341;81;20354;-88
2022/10/14 00:13:26;;;;;;;;;;;;;;;11.46;100.00;98436.17;1689887;82;24863;-85
2022/10/14 00:15:51;;;;;;;;;;;;;;;11.42;100.00;98434.26;1675370;83;20212;-88
2022/10/14 00:18:17;;;;;;;;;;;;;;;11.39;100.00;98437.12;1682483;83;21646;-84
2022/10/14 00:20:55;;;;;;;;;;;;;;;11.36;100.00;98436.48;1692508;82;20284;-88
2022/10/14 00:23:21;;;;;;;;;;;;;;;11.35;100.00;98436.15;1715496;80;20404;-89
2022/10/14 00:25:46;;;;;;;;;;;;;;;11.30;100.00;98433.37;1731223;81;20241;-86
2022/10/14 00:28:40;;;;;;;;;;;;;;;11.30;100.00;98433.37;1715439;81;20944;-88
2022/10/14 00:31:06;;;;;;;;;;;;;;;11.31;100.00;98431.11;1716049;80;26210;-88
2022/10/14 00:33:33;;;;;;;;;;;;;;;11.31;100.00;98432.90;1720265;80;24561;-88
2022/10/14 00:36:00;;;;;;;;;;;;;;;11.29;100.00;98429.07;1721318;82;20257;-84
2022/10/14 00:38:27;;;;;;;;;;;;;;;11.29;100.00;98426.95;1720650;80;24781;-83
2022/10/14 00:40:54;;;;;;;;;;;;;;;11.25;100.00;98419.77;1685401;83;22105;-88
2022/10/14 00:43:20;;;;;;;;;;;;;;;11.27;100.00;98424.44;1657958;83;26072;-84
2022/10/14 00:45:46;;;;;;;;;;;;;;;11.25;100.00;98420.24;1686286;82;25560;-88
2022/10/14 00:48:17;;;;;;;;;;;;;;;11.24;100.00;98419.40;1658790;84;20229;-88
2022/10/14 00:50:41;;;;;;;;;;;;;;;11.22;100.00;98418.70;1681627;82;24860;-86
2022/10/14 00:53:09;;;;;;;;;;;;;;;11.23;100.00;98419.53;1677369;82;22030;-86
2022/10/14 00:55:37;;;;;;;;;;;;;;;11.26;100.00;98416.20;1677794;82;26026;-86
2022/10/14 00:58:04;;;;;;;;;;;;;;;11.24;100.00;98415.94;1695068;82;24455;-87
2022/10/14 01:00:29;;;;;;;;;;;;;;;11.17;100.00;98412.12;1664258;84;20669;-88
2022/10/14 01:02:56;;;;;;;;;;;;;;;11.07;100.00;98412.42;1697274;81;20751;-87
2022/10/14 01:05:23;;;;;;;;;;;;;;;11.10;100.00;98407.80;1662003;84;21640;-87
2022/10/14 01:07:51;;;;;;;;;;;;;;;11.09;100.00;98404.80;1680539;82;26671;-87
2022/10/14 01:10:19;;;;;;;;;;;;;;;11.12;100.00;98404.59;1671365;82;24449;-88
2022/10/14 01:12:47;;;;;;;;;;;;;;;11.15;100.00;98405.67;1692156;82;20240;-84
2022/10/14 01:15:23;;;;;;;;;;;;;;;11.16;100.00;98407.82;1669501;82;24811;-85
2022/10/14 01:17:51;;;;;;;;;;;;;;;11.16;100.00;98400.80;1698448;83;21845;-88
2022/10/14 01:20:37;;;;;;;;;;;;;;;11.17;100.00;98399.02;1706489;82;26768;-89
2022/10/14 01:23:21;;;;;;;;;;;;;;;11.18;100.00;98398.08;1684148;83;24397;-87
2022/10/14 01:26:08;;;;;;;;;;;;;;;11.13;100.00;98395.77;1722353;80;20450;-84
2022/10/14 01:28:52;;;;;;;;;;;;;;;11.14;100.00;98397.92;1730636;80;25430;-83
2022/10/14 01:31:23;;;;;;;;;;;;;;;11.15;100.00;98399.13;1718461;80;22135;-84
2022/10/14 01:33:50;;;;;;;;;;;;;;;11.11;100.00;98400.77;1729396;80;25888;-85
2022/10/14 01:36:21;;;;;;;;;;;;;;;11.03;100.00;98396.08;1702059;81;25245;-82
2022/10/14 01:38:52;;;;;;;;;;;;;;;11.01;100.00;98395.38;1730918;80;20250;-86
2022/10/14 01:41:23;;;;;;;;;;;;;;;10.99;100.00;98388.09;1739190;79;25596;-89
2022/10/14 01:43:49;;;;;;;;;;;;;;;10.86;100.00;98383.36;1719808;80;22312;-89
2022/10/14 01:46:16;;;;;;;;;;;;;;;10.72;100.00;98375.20;1720205;80;26060;-84
2022/10/14 01:48:45;;;;;;;;;;;;;;;10.73;100.00;98377.34;1726856;80;24314;-84
2022/10/14 01:51:12;;;;;;;;;;;;;;;10.81;100.00;98382.38;1732992;80;20367;-88
2022/10/14 01:53:41;;;;;;;;;;;;;;;10.88;100.00;98383.63;1728254;81;25073;-88
2022/10/14 01:56:08;;;;;;;;;;;;;;;10.91;100.00;98382.55;1717480;80;22008;-88
2022/10/14 01:58:36;;;;;;;;;;;;;;;10.96;100.00;98383.09;1706598;80;26006;-88
2022/10/14 02:01:07;;;;;;;;;;;;;;;10.97;100.00;98382.59;1728153;80;25282;-88
2022/10/14 02:03:37;;;;;;;;;;;;;;;11.01;100.00;98380.13;1708231;82;20234;-88
2022/10/14 02:06:05;;;;;;;;;;;;;;;11.01;100.00;98375.73;1723076;80;24937;-84
2022/10/14 02:08:49;;;;;;;;;;;;;;;11.08;100.00;98377.41;1722206;81;22218;-84
2022/10/14 02:11:19;;;;;;;;;;;;;;;11.12;100.00;98373.17;1726136;80;25980;-87
2022/10/14 02:13:57;;;;;;;;;;;;;;;11.17;100.00;98371.05;1732056;80;24446;-88
2022/10/14 02:16:33;;;;;;;;;;;;;;;11.20;100.00;98369.50;1691913;82;20347;-84
2022/10/14 02:19:04;;;;;;;;;;;;;;;11.25;100.00;98362.14;1695723;83;25457;-84
2022/10/14 02:21:37;;;;;;;;;;;;;;;11.28;100.00;98368.48;1726306;81;23016;-84
2022/10/14 02:24:20;;;;;;;;;;;;;;;11.29;100.00;98360.95;1710797;81;26064;-84
2022/10/14 02:26:55;;;;;;;;;;;;;;;11.27;100.00;98356.80;1708690;80;25337;-87
2022/10/14 02:29:22;;;;;;;;;;;;;;;11.29;100.00;98357.53;1718515;80;20211;-89
2022/10/14 02:31:49;;;;;;;;;;;;;;;11.30;100.00;98353.94;1719941;80;24931;-84
2022/10/14 02:37:27;;;;;;;;;;;;;;;11.35;100.00;98353.11;1719368;80;22089;-89
2022/10/14 02:39:54;;;;;;;;;;;;;;;11.35;100.00;98351.80;1722895;81;25482;-90
2022/10/14 02:42:36;;;;;;;;;;;;;;;11.37;100.00;98352.54;1724346;80;20548;-88
2022/10/14 02:45:15;;;;;;;;;;;;;;;11.40;100.00;98344.44;1716608;81;24738;-90
2022/10/14 02:47:40;;;;;;;;;;;;;;;11.44;100.00;98353.77;1730891;81;22007;-89
2022/10/14 02:50:08;;;;;;;;;;;;;;;11.46;100.00;98353.16;1720021;81;21225;-89
2022/10/14 02:52:47;;;;;;;;;;;;;;;11.51;100.00;98358.08;1714544;81;24593;-89
2022/10/14 02:55:14;;;;;;;;;;;;;;;11.52;100.00;98350.55;1722771;80;20169;-88
2022/10/14 02:57:40;;;;;;;;;;;;;;;11.55;100.00;98349.03;1716555;80;25625;-88
2022/10/14 03:00:06;;;;;;;;;;;;;;;11.61;100.00;98346.78;1721392;81;20225;-88
2022/10/14 03:02:34;;;;;;;;;;;;;;;11.68;100.00;98347.97;1689674;83;26152;-89
2022/10/14 03:05:12;;;;;;;;;;;;;;;11.74;100.00;98349.33;1688659;82;24508;-89
2022/10/14 03:08:03;;;;;;;;;;;;;;;11.80;100.00;98351.48;1674111;83;20595;-89
2022/10/14 03:10:29;;;;;;;;;;;;;;;11.82;100.00;98349.59;1697231;83;24812;-89
2022/10/14 03:15:49;;;;;;;;;;;;;;;11.86;100.00;98348.40;1677342;84;25959;-86
2022/10/14 03:18:15;;;;;;;;;;;;;;;11.86;100.00;98343.16;1695530;81;24423;-86
2022/10/14 03:20:45;;;;;;;;;;;;;;;11.89;100.00;98346.03;1685469;82;20388;-83
2022/10/14 03:23:11;;;;;;;;;;;;;;;11.91;100.00;98344.95;1663964;84;24878;-88
2022/10/14 03:25:37;;;;;;;;;;;;;;;11.94;100.00;98343.89;1673363;83;22319;-88
2022/10/14 03:28:04;;;;;;;;;;;;;;;11.98;100.00;98344.01;1685361;82;21274;-85
2022/10/14 03:30:30;;;;;;;;;;;;;;;12.02;100.00;98342.81;1690882;83;25215;-88
2022/10/14 03:32:56;;;;;;;;;;;;;;;12.05;100.00;98343.43;1688778;82;20191;-89
2022/10/14 03:35:21;;;;;;;;;;;;;;;12.07;100.00;98345.91;1687601;81;20233;-89
2022/10/14 03:37:47;;;;;;;;;;;;;;;12.11;100.00;98340.30;1690249;82;20915;-88
2022/10/14 03:40:24;;;;;;;;;;;;;;;12.12;100.00;98343.77;1673460;82;21015;-88
2022/10/14 03:42:49;;;;;;;;;;;;;;;12.16;100.00;98347.34;1701693;83;25182;-88
2022/10/14 03:45:16;;;;;;;;;;;;;;;12.21;100.00;98342.23;1691663;82;20267;-87
2022/10/14 03:47:42;;;;;;;;;;;;;;;12.20;100.00;98344.02;1687031;82;25017;-87
2022/10/14 03:50:08;;;;;;;;;;;;;;;12.23;100.00;98344.24;1691204;83;20250;-86
2022/10/14 03:52:47;;;;;;;;;;;;;;;12.24;100.00;98343.30;1687741;82;22355;-87
2022/10/14 03:55:02;;;;;;;;;;;;;;;12.26;100.00;98344.02;1694733;82;24851;-87
2022/10/14 03:57:28;;;;;;;;;;;;;;;12.30;100.00;98341.03;1663158;84;20441;-86
2022/10/14 03:59:54;;;;;;;;;;;;;;;12.30;100.00;98339.72;1669171;84;20298;-86
2022/10/14 04:02:20;;;;;;;;;;;;;;;12.32;100.00;98337.82;1672293;83;20252;-86
2022/10/14 04:04:46;;;;;;;;;;;;;;;12.35;100.00;98334.11;1693584;82;21015;-86
2022/10/14 04:07:11;;;;;;;;;;;;;;;12.35;100.00;98338.87;1673405;82;20362;-86
2022/10/14 04:09:37;;;;;;;;;;;;;;;12.36;100.00;98343.17;1676466;82;20252;-84
2022/10/14 04:12:04;;;;;;;;;;;;;;;12.39;100.00;98333.73;1686720;82;20303;-84
2022/10/14 04:14:30;;;;;;;;;;;;;;;12.40;100.00;98330.64;1663425;84;22023;-85
2022/10/14 04:17:14;;;;;;;;;;;;;;;12.41;100.00;98331.00;1698235;82;21287;-89
2022/10/14 04:19:40;;;;;;;;;;;;;;;12.41;100.00;98334.94;1682584;83;24432;-89
2022/10/14 04:22:06;;;;;;;;;;;;;;;12.40;100.00;98336.72;1717456;81;20470;-89
2022/10/14 04:24:35;;;;;;;;;;;;;;;12.39;100.00;98333.73;1725077;80;20646;-86
2022/10/14 04:27:05;;;;;;;;;;;;;;;12.42;100.00;98337.92;1687281;82;22741;-86
2022/10/14 04:29:34;;;;;;;;;;;;;;;12.39;100.00;98330.28;1666069;83;26140;-84
2022/10/14 04:32:00;;;;;;;;;;;;;;;12.32;100.00;98337.82;1686297;81;24423;-89
2022/10/14 04:34:26;;;;;;;;;;;;;;;12.32;100.00;98335.20;1654039;84;20307;-89
2022/10/14 04:36:52;;;;;;;;;;;;;;;12.31;100.00;98334.00;1682551;83;24841;-90
2022/10/14 04:39:18;;;;;;;;;;;;;;;12.30;100.00;98344.12;1664437;84;22143;-87
2022/10/14 04:41:44;;;;;;;;;;;;;;;12.28;100.00;98334.22;1671015;84;21097;-87
2022/10/14 04:44:10;;;;;;;;;;;;;;;12.32;100.00;98336.98;1687664;82;20786;-89
2022/10/14 04:46:36;;;;;;;;;;;;;;;12.35;100.00;98327.07;1689792;82;20296;-84
2022/10/14 04:49:02;;;;;;;;;;;;;;;12.32;100.00;98329.95;1659774;83;20291;-83
2022/10/14 04:51:27;;;;;;;;;;;;;;;12.31;100.00;98330.06;1660797;82;20263;-87
2022/10/14 04:54:06;;;;;;;;;;;;;;;12.37;100.00;98330.42;1686509;83;21192;-89
2022/10/14 04:56:32;;;;;;;;;;;;;;;12.44;100.00;98338.14;1723235;81;24457;-88
2022/10/14 04:58:58;;;;;;;;;;;;;;;12.49;100.00;98329.42;1680966;83;20220;-89
2022/10/14 05:01:33;;;;;;;;;;;;;;;12.51;100.00;98333.25;1645167;85;20235;-89
2022/10/14 05:03:58;;;;;;;;;;;;;;;12.51;100.00;98328.00;1670624;84;21988;-90
2022/10/14 05:06:33;;;;;;;;;;;;;;;12.50;100.00;98329.79;1687369;82;20991;-89
2022/10/14 05:08:59;;;;;;;;;;;;;;;12.50;100.00;98332.89;1698092;81;24621;-89
2022/10/14 05:11:25;;;;;;;;;;;;;;;12.48;100.00;98329.57;1690139;82;20842;-88
2022/10/14 05:13:51;;;;;;;;;;;;;;;12.47;100.00;98333.14;1698744;82;20414;-89
2022/10/14 05:16:17;;;;;;;;;;;;;;;12.43;100.00;98333.88;1689295;83;20334;-87
2022/10/14 05:18:42;;;;;;;;;;;;;;;12.42;100.00;98330.05;1702973;82;21056;-89
2022/10/14 05:21:20;;;;;;;;;;;;;;;12.39;100.00;98324.55;1696647;82;20280;-89
2022/10/14 05:23:46;;;;;;;;;;;;;;;12.39;100.00;98323.24;1686459;82;20274;-89
2022/10/14 05:26:12;;;;;;;;;;;;;;;12.38;100.00;98325.50;1678163;82;20550;-85
2022/10/14 05:28:38;;;;;;;;;;;;;;;12.37;100.00;98322.55;1698239;82;20287;-90
2022/10/14 05:31:05;;;;;;;;;;;;;;;12.36;100.00;98325.28;1691728;82;21037;-89
2022/10/14 05:33:31;;;;;;;;;;;;;;;12.35;100.00;98324.45;1691174;82;24546;-88
2022/10/14 05:35:57;;;;;;;;;;;;;;;12.36;100.00;98326.13;1687365;83;20354;-88
2022/10/14 05:38:26;;;;;;;;;;;;;;;12.34;100.00;98318.00;1685544;83;20695;-88
2022/10/14 05:40:56;;;;;;;;;;;;;;;12.24;100.00;98323.61;1682802;83;22962;-88
2022/10/14 05:43:26;;;;;;;;;;;;;;;12.13;100.00;98315.27;1687633;82;26146;-87
2022/10/14 05:45:52;;;;;;;;;;;;;;;12.05;100.00;98315.05;1701225;83;24471;-87
2022/10/14 05:48:18;;;;;;;;;;;;;;;12.13;100.00;98316.11;1689299;82;20222;-88
2022/10/14 05:50:44;;;;;;;;;;;;;;;12.22;100.00;98325.55;1696147;82;24794;-88
2022/10/14 05:53:10;;;;;;;;;;;;;;;12.23;100.00;98314.91;1718430;80;22057;-84
2022/10/14 05:55:36;;;;;;;;;;;;;;;12.31;100.00;98316.94;1726183;81;26722;-87
2022/10/14 05:58:03;;;;;;;;;;;;;;;12.37;100.00;98323.86;1712746;80;20296;-88
2022/10/14 06:00:29;;;;;;;;;;;;;;;12.41;100.00;98319.19;1713809;81;20199;-88
2022/10/14 06:02:58;;;;;;;;;;;;;;;12.32;100.00;98310.74;1719134;81;20241;-87
2022/10/14 06:05:24;;;;;;;;;;;;;;;12.24;100.00;98318.37;1717876;80;22001;-89
2022/10/14 06:07:50;;;;;;;;;;;;;;;12.25;100.00;98314.80;1718357;81;21073;-84
2022/10/14 06:10:16;;;;;;;;;;;;;;;12.30;100.00;98314.79;1717350;80;24473;-85
2022/10/14 06:12:43;;;;;;;;;;;;;;;12.38;100.00;98311.06;1724888;81;20306;-88
2022/10/14 06:15:14;;;;;;;;;;;;;;;12.35;100.00;98312.64;1715903;80;24804;-89
2022/10/14 06:17:40;;;;;;;;;;;;;;;12.41;100.00;98318.72;1719279;81;22117;-88
2022/10/14 06:20:06;;;;;;;;;;;;;;;12.47;100.00;98316.09;1716325;80;21134;-86
2022/10/14 06:22:32;;;;;;;;;;;;;;;12.53;100.00;98315.60;1714394;81;24469;-86
2022/10/14 06:24:58;;;;;;;;;;;;;;;12.58;100.00;98319.53;1724837;80;20290;-86
2022/10/14 06:27:24;;;;;;;;;;;;;;;12.62;100.00;98322.73;1707107;80;24861;-86
2022/10/14 06:29:53;;;;;;;;;;;;;;;12.69;100.00;98322.61;1727051;80;20936;-86
2022/10/14 06:32:27;;;;;;;;;;;;;;;12.77;100.00;98328.54;1719940;81;25950;-84
2022/10/14 06:34:51;;;;;;;;;;;;;;;12.84;100.00;98337.60;1723235;80;24446;-86
2022/10/14 06:37:20;;;;;;;;;;;;;;;12.90;100.00;98331.86;1721244;80;20232;-84
2022/10/14 06:39:53;;;;;;;;;;;;;;;12.95;100.00;98337.09;1723239;80;24776;-84
2022/10/14 06:42:16;;;;;;;;;;;;;;;12.96;100.00;98333.52;1714486;81;21960;-89
2022/10/14 06:44:42;;;;;;;;;;;;;;;12.99;100.00;98335.88;1682928;82;20972;-88
2022/10/14 06:47:08;;;;;;;;;;;;;;;13.06;100.00;98337.53;1671218;84;20243;-84
2022/10/14 06:49:34;;;;;;;;;;;;;;;13.12;100.00;98332.30;1691494;82;20353;-84
2022/10/14 06:52:01;;;;;;;;;;;;;;;13.19;100.00;98342.66;1675056;83;20481;-84
2022/10/14 06:54:48;;;;;;;;;;;;;;;13.21;100.00;98339.41;1688355;82;22225;-89
2022/10/14 06:57:14;;;;;;;;;;;;;;;13.24;100.00;98340.49;1714276;80;26084;-86
2022/10/14 06:59:40;;;;;;;;;;;;;;;13.26;100.00;98338.55;1716181;80;24613;-88
2022/10/14 07:02:06;;;;;;;;;;;;;;;13.26;100.00;98342.02;1716475;80;20224;-88
2022/10/14 07:04:43;;;;;;;;;;;;;;;13.29;100.00;98342.26;1696978;82;24869;-88
2022/10/14 07:07:09;;;;;;;;;;;;;;;13.30;100.00;98343.93;1646664;83;22048;-89
2022/10/14 07:09:35;;;;;;;;;;;;;;;13.32;100.00;98347.25;1704421;82;26070;-88
2022/10/14 07:12:01;;;;;;;;;;;;;;;13.34;100.00;98340.92;1662088;84;20329;-88
2022/10/14 07:14:27;;;;;;;;;;;;;;;13.38;100.00;98338.86;1666816;83;20382;-89
2022/10/14 07:16:52;;;;;;;;;;;;;;;13.46;100.00;98341.70;1677800;83;20371;-84
2022/10/14 07:19:19;;;;;;;;;;;;;;;13.53;100.00;98340.21;1667181;84;20771;-86
2022/10/14 07:21:48;;;;;;;;;;;;;;;13.60;100.00;98341.38;1688005;83;26654;-84
2022/10/14 07:24:14;;;;;;;;;;;;;;;13.63;100.00;98345.08;1655845;84;24519;-84
2022/10/14 07:26:40;;;;;;;;;;;;;;;13.67;100.00;98337.28;1683550;82;20248;-84
2022/10/14 07:29:06;;;;;;;;;;;;;;;13.71;100.00;98345.26;1687830;82;25648;-84
2022/10/14 07:31:33;;;;;;;;;;;;;;;13.75;100.00;98345.34;1692918;82;20338;-86
2022/10/14 07:34:00;;;;;;;;;;;;;;;13.79;100.00;98348.09;1698237;82;25989;-89
2022/10/14 07:36:27;;;;;;;;;;;;;;;13.86;100.00;98343.60;1697889;81;24471;-84
2022/10/14 07:38:53;;;;;;;;;;;;;;;13.94;100.00;98345.12;1682157;82;20353;-84
2022/10/14 07:41:20;;;;;;;;;;;;;;;14.01;100.00;98348.91;1688600;82;20324;-87
2022/10/14 07:43:48;;;;;;;;;;;;;;;14.09;100.00;98347.75;1698259;82;22109;-86
2022/10/14 07:46:27;;;;;;;;;;;;;;;14.17;100.00;98346.15;1661181;84;26757;-89
2022/10/14 07:48:45;;;;;;;;;;;;;;;14.24;100.00;98345.95;1685668;82;25078;-85
2022/10/14 07:51:11;;;;;;;;;;;;;;;14.34;100.00;98346.49;1661921;84;20218;-86
2022/10/14 07:53:37;;;;;;;;;;;;;;;14.42;100.00;98350.62;1686719;82;20253;-86
2022/10/14 07:56:03;;;;;;;;;;;;;;;14.49;100.00;98341.23;1684178;83;20248;-89
2022/10/14 07:58:29;;;;;;;;;;;;;;;14.56;100.00;98341.06;1693415;82;21785;-85
2022/10/14 08:00:57;;;;;;;;;;;;;;;14.61;100.00;98344.12;1695467;82;24547;-84
2022/10/14 08:03:24;;;;;;;;;;;;;;;14.66;100.00;98348.50;1691400;83;20363;-89
2022/10/14 08:06:01;;;;;;;;;;;;;;;14.73;100.00;98349.61;1685116;82;24866;-89
2022/10/14 08:08:27;;;;;;;;;;;;;;;14.79;100.00;98350.39;1654327;84;22007;-86
2022/10/14 08:11:07;;;;;;;;;;;;;;;14.85;100.00;98349.84;1680218;82;26114;-89
2022/10/14 08:13:33;;;;;;;;;;;;;;;14.91;100.00;98349.79;1693555;83;24533;-90
2022/10/14 08:16:01;;;;;;;;;;;;;;;14.96;100.00;98346.26;1701229;82;20337;-90
2022/10/14 08:18:29;;;;;;;;;;;;;;;15.01;100.00;98345.36;1679128;82;24774;-88
2022/10/14 08:20:55;;;;;;;;;;;;;;;15.07;100.00;98341.70;1680876;82;21807;-86
2022/10/14 08:23:29;;;;;;;;;;;;;;;15.15;100.00;98346.30;1690701;82;26064;-89
2022/10/14 08:25:55;;;;;;;;;;;;;;;15.20;100.00;98348.52;1649390;84;24584;-89
2022/10/14 08:31:32;;;;;;;;;;;;;;;15.26;100.00;98348.80;1687159;82;20899;-89
2022/10/14 08:34:02;;;;;;;;;;;;;;;15.31;100.00;98354.48;1698549;82;20251;-89
2022/10/14 08:36:29;;;;;;;;;;;;;;;15.32;100.00;98361.44;1697793;83;26125;-89
2022/10/14 08:38:55;;;;;;;;;;;;;;;15.30;100.00;98357.25;1696603;83;24451;-86
2022/10/14 08:41:38;;;;;;;;;;;;;;;15.29;100.00;98357.73;1690089;82;20458;-86
2022/10/14 08:44:12;;;;;;;;;;;;;;;15.28;100.00;98354.74;1695171;83;25560;-86
2022/10/14 08:46:55;;;;;;;;;;;;;;;15.30;100.00;98355.45;1657941;83;21429;-86
2022/10/14 08:49:32;;;;;;;;;;;;;;;15.33;100.00;98357.80;1664449;83;26245;-84
2022/10/14 08:52:04;;;;;;;;;;;;;;;15.38;100.00;98362.69;1688108;82;24512;-89
2022/10/14 08:54:31;;;;;;;;;;;;;;;15.38;100.00;98361.36;1694059;83;20575;-89
2022/10/14 08:56:57;;;;;;;;;;;;;;;15.39;100.00;98356.41;1646779;84;24738;-89
2022/10/14 08:59:24;;;;;;;;;;;;;;;15.44;100.00;98350.23;1645426;84;21974;-89
2022/10/14 09:01:58;;;;;;;;;;;;;;;15.46;100.00;98354.41;1679806;84;26057;-89
2022/10/14 09:04:43;;;;;;;;;;;;;;;15.46;100.00;98357.05;1654544;84;24397;-89
2022/10/14 09:07:15;;;;;;;;;;;;;;;15.48;100.00;98355.59;1719903;80;20225;-87
2022/10/14 09:09:43;;;;;;;;;;;;;;;15.49;100.00;98361.22;1684774;82;24913;-89
2022/10/14 09:12:11;;;;;;;;;;;;;;;15.46;100.00;98360.17;1658135;84;22192;-84
2022/10/14 09:14:38;;;;;;;;;;;;;;;15.40;100.00;98354.96;1695987;83;26010;-86
2022/10/14 09:17:09;;;;;;;;;;;;;;;15.46;100.00;98356.20;1693154;82;24333;-84
2022/10/14 09:19:36;;;;;;;;;;;;;;;15.50;100.00;98360.22;1657746;84;20307;-91
2022/10/14 09:22:04;;;;;;;;;;;;;;;15.56;100.00;98357.55;1654907;84;25464;-90
2022/10/14 09:24:35;;;;;;;;;;;;;;;15.54;100.00;98359.52;1683779;83;22037;-84
2022/10/14 09:27:05;;;;;;;;;;;;;;;15.62;100.00;98359.14;1688387;82;26049;-85
2022/10/14 09:29:38;;;;;;;;;;;;;;;15.73;100.00;98359.48;1663507;83;20879;-89
2022/10/14 09:32:06;;;;;;;;;;;;;;;15.79;100.00;98361.55;1684732;81;20160;-84
2022/10/14 09:34:39;;;;;;;;;;;;;;;15.82;100.00;98358.62;1698473;82;24789;-90
2022/10/14 09:37:19;;;;;;;;;;;;;;;15.86;100.00;98360.02;1693749;82;21985;-85
2022/10/14 09:39:45;;;;;;;;;;;;;;;15.88;100.00;98359.38;1686660;82;26025;-89
2022/10/14 09:42:15;;;;;;;;;;;;;;;15.89;100.00;98365.00;1688987;82;20298;-89
2022/10/14 09:44:41;;;;;;;;;;;;;;;15.91;100.00;98363.06;1653573;84;20377;-84
2022/10/14 09:47:09;;;;;;;;;;;;;;;15.93;100.00;98364.25;1663369;83;20999;-84
2022/10/14 09:49:44;;;;;;;;;;;;;;;15.92;100.00;98364.73;1668392;83;22140;-89
2022/10/14 09:52:21;;;;;;;;;;;;;;;15.92;100.00;98367.86;1716838;80;26097;-90
2022/10/14 09:54:52;;;;;;;;;;;;;;;15.93;100.00;98367.70;1723100;80;24444;-89
2022/10/14 09:57:17;;;;;;;;;;;;;;;15.97;100.00;98364.30;1726033;81;20227;-91
2022/10/14 09:59:59;;;;;;;;;;;;;;;16.01;100.00;98360.39;1718999;80;25522;-91
2022/10/14 10:02:50;;;;;;;;;;;;;;;16.02;100.00;98357.63;1719590;81;21999;-91
2022/10/14 10:05:24;;;;;;;;;;;;;;;16.01;100.00;98357.27;1721191;81;26022;-89
2022/10/14 10:08:12;;;;;;;;;;;;;;;16.02;100.00;98361.58;1722268;82;24533;-89
2022/10/14 10:10:40;;;;;;;;;;;;;;;16.01;100.00;98355.12;1716422;81;20387;-84
2022/10/14 10:13:23;;;;;;;;;;;;;;;16.01;100.00;98359.91;1728565;80;24848;-85
2022/10/14 10:15:56;;;;;;;;;;;;;;;16.00;100.00;98358.73;1734230;80;22277;-87
2022/10/14 10:18:23;;;;;;;;;;;;;;;16.04;100.00;98359.61;1726049;80;26653;-87
2022/10/14 10:21:05;;;;;;;;;;;;;;;16.11;100.00;98351.95;1711565;81;24034;-86
2022/10/14 10:23:30;;;;;;;;;;;;;;;16.17;100.00;98350.91;1714399;80;20246;-85
2022/10/14 10:25:58;;;;;;;;;;;;;;;16.21;100.00;98353.59;1723312;80;20266;-85
2022/10/14 10:28:31;;;;;;;;;;;;;;;16.23;100.00;98349.49;1691079;82;22240;-84
2022/10/14 10:30:58;;;;;;;;;;;;;;;16.30;100.00;98345.30;1674660;83;25993;-85
2022/10/14 10:33:26;;;;;;;;;;;;;;;16.34;100.00;98345.35;1671728;83;24636;-84
2022/10/14 10:35:56;;;;;;;;;;;;;;;16.41;100.00;98345.13;1675050;83;20515;-84
2022/10/14 10:38:29;;;;;;;;;;;;;;;16.46;100.00;98347.32;1684145;82;24767;-84
2022/10/14 10:40:59;;;;;;;;;;;;;;;16.51;100.00;98347.71;1690308;83;22019;-86
2022/10/14 10:43:26;;;;;;;;;;;;;;;16.53;100.00;98346.57;1674074;83;26104;-84
2022/10/14 10:46:00;;;;;;;;;;;;;;;16.51;100.00;98344.59;1694751;82;24531;-89
2022/10/14 10:48:28;;;;;;;;;;;;;;;16.52;100.00;98337.49;1695849;82;20396;-86
2022/10/14 10:50:59;;;;;;;;;;;;;;;16.52;100.00;98333.05;1684247;83;24876;-85
2022/10/14 10:53:30;;;;;;;;;;;;;;;16.54;100.00;98336.35;1668322;83;22264;-86
2022/10/14 10:56:10;;;;;;;;;;;;;;;16.60;100.00;98333.64;1676822;82;27282;-84
2022/10/14 10:58:55;;;;;;;;;;;;;;;16.66;100.00;98335.22;1666837;83;24513;-84
2022/10/14 11:01:39;;;;;;;;;;;;;;;16.73;100.00;98334.14;1693407;83;20563;-83
2022/10/14 11:04:24;;;;;;;;;;;;;;;16.78;100.00;98331.87;1671246;84;24765;-84
2022/10/14 11:16:02;;;;;;;;;;;;;;;16.90;100.00;98325.90;1724296;82;20253;-89
2022/10/14 11:18:30;;;;;;;;;;;;;;;16.87;100.00;98317.77;1692272;83;24770;-90
2022/10/14 11:21:10;;;;;;;;;;;;;;;16.90;100.00;98320.61;1675124;84;22728;-90
2022/10/14 11:30:14;;;;;;;;;;;;;;;16.93;100.00;98314.52;1685536;82;20213;-89
2022/10/14 11:32:47;;;;;;;;;;;;;;;16.93;100.00;98306.59;1690044;82;24803;-88
2022/10/14 11:35:32;;;;;;;;;;;;;;;16.92;100.00;98310.21;1726696;80;22696;-87
2022/10/14 11:38:11;;;;;;;;;;;;;;;16.91;100.00;98308.55;1722683;81;26214;-85
2022/10/14 11:40:58;;;;;;;;;;;;;;;16.87;100.00;98308.51;1718709;80;24662;-89
2022/10/14 11:43:25;;;;;;;;;;;;;;;16.83;100.00;98308.97;1713322;80;20330;-85
2022/10/14 11:45:59;;;;;;;;;;;;;;;16.80;100.00;98307.44;1720919;80;24982;-84
2022/10/14 11:48:30;;;;;;;;;;;;;;;16.75;100.00;98311.02;1725607;80;22211;-87
2022/10/14 11:50:57;;;;;;;;;;;;;;;16.71;100.00;98310.49;1707245;82;26071;-86
2022/10/14 11:53:25;;;;;;;;;;;;;;;16.69;100.00;98307.67;1713154;80;25237;-88
2022/10/14 11:55:53;;;;;;;;;;;;;;;16.63;100.00;98303.81;1711818;80;20313;-89
2022/10/14 11:58:23;;;;;;;;;;;;;;;16.62;100.00;98307.43;1715163;80;25036;-90
2022/10/14 12:00:51;;;;;;;;;;;;;;;16.63;100.00;98304.30;1699036;82;22097;-89
2022/10/14 12:03:35;;;;;;;;;;;;;;;16.67;100.00;98302.53;1720644;80;26075;-84
2022/10/14 12:06:03;;;;;;;;;;;;;;;16.68;100.00;98305.52;1724715;81;25173;-86
2022/10/14 12:08:49;;;;;;;;;;;;;;;16.63;100.00;98297.70;1717240;80;20233;-87
2022/10/14 12:11:34;;;;;;;;;;;;;;;16.62;100.00;98294.70;1725365;80;25176;-87
2022/10/14 12:14:02;;;;;;;;;;;;;;;16.57;100.00;98295.61;1720759;81;22071;-86
2022/10/14 12:16:28;;;;;;;;;;;;;;;16.52;100.00;98296.55;1722454;81;26280;-86
2022/10/14 12:18:55;;;;;;;;;;;;;;;16.50;100.00;98295.85;1707072;81;20961;-88
2022/10/14 12:21:40;;;;;;;;;;;;;;;16.47;100.00;98291.71;1721831;80;20298;-89
2022/10/14 12:24:08;;;;;;;;;;;;;;;16.43;100.00;98291.64;1727772;80;25027;-87
2022/10/14 12:26:41;;;;;;;;;;;;;;;16.46;100.00;98293.17;1718400;80;22877;-90
2022/10/14 12:29:09;;;;;;;;;;;;;;;16.50;100.00;98288.76;1721397;81;26028;-91
2022/10/14 12:31:38;;;;;;;;;;;;;;;16.56;100.00;98284.20;1723055;82;24470;-89
2022/10/14 12:34:17;;;;;;;;;;;;;;;16.57;100.00;98286.36;1718183;80;20275;-89
2022/10/14 12:36:45;;;;;;;;;;;;;;;16.57;100.00;98286.36;1709764;80;24856;-89
2022/10/14 12:39:16;;;;;;;;;;;;;;;16.50;100.00;98283.96;1690658;82;21999;-90
2022/10/14 12:41:46;;;;;;;;;;;;;;;16.47;100.00;98285.59;1688630;83;26015;-89
2022/10/14 12:44:13;;;;;;;;;;;;;;;16.45;100.00;98278.30;1687569;83;24661;-89
2022/10/14 12:46:43;;;;;;;;;;;;;;;16.43;100.00;98285.03;1722170;80;20277;-88
2022/10/14 12:49:10;;;;;;;;;;;;;;;16.41;100.00;98280.89;1726117;80;24783;-89
2022/10/14 12:51:36;;;;;;;;;;;;;;;16.35;100.00;98284.12;1713201;80;22240;-89
2022/10/14 12:54:07;;;;;;;;;;;;;;;16.27;100.00;98278.23;1722748;81;26024;-89
2022/10/14 12:56:35;;;;;;;;;;;;;;;16.22;100.00;98276.53;1713607;81;24526;-87
2022/10/14 12:59:02;;;;;;;;;;;;;;;16.14;100.00;98275.12;1719250;81;20343;-86
2022/10/14 13:01:29;;;;;;;;;;;;;;;16.07;100.00;98281.47;1717804;81;24933;-86
2022/10/14 13:04:02;;;;;;;;;;;;;;;16.01;100.00;98280.72;1718495;80;21897;-86
2022/10/14 13:06:30;;;;;;;;;;;;;;;15.98;100.00;98275.75;1727722;80;26749;-87
2022/10/14 13:09:16;;;;;;;;;;;;;;;15.99;100.00;98281.34;1721553;81;24491;-87
2022/10/14 13:11:43;;;;;;;;;;;;;;;15.98;100.00;98279.70;1727325;80;20384;-87
2022/10/14 13:14:20;;;;;;;;;;;;;;;15.95;100.00;98276.02;1720217;80;24758;-86